sensor_id;sensor_type;location;lat;lon;timestamp;P1;durP1;ratioP1;P2;durP2;ratioP2
42198;SDS011;27868;45.184;5.786;2022-07-05T00:00:48;3.47;;;1.40;;
42198;SDS011;27868;45.184;5.786;2022-07-05T00:03:33;2.17;;;1.35;;
42198;SDS011;27868;45.184;5.786;2022-07-05T00:06:17;4.25;;;1.25;;
42198;SDS011;27868;45.184;5.786;2022-07-05T00:09:02;3.42;;;1.50;;
42198;SDS011;27868;45.184;5.786;2022-07-05T00:11:47;4.18;;;1.45;;
42198;SDS011;27868;45.184;5.786;2022-07-05T00:14:31;2.75;;;1.45;;
42198;SDS011;27868;45.184;5.786;2022-07-05T00:17:16;10.93;;;1.42;;
42198;SDS011;27868;45.184;5.786;2022-07-05T00:20:01;2.50;;;1.63;;
42198;SDS011;27868;45.184;5.786;2022-07-05T00:22:47;5.25;;;1.45;;
42198;SDS011;27868;45.184;5.786;2022-07-05T00:25:32;2.67;;;1.30;;
42198;SDS011;27868;45.184;5.786;2022-07-05T00:28:16;11.80;;;1.75;;
42198;SDS011;27868;45.184;5.786;2022-07-05T00:31:01;5.22;;;1.15;;
42198;SDS011;27868;45.184;5.786;2022-07-05T00:33:45;2.80;;;1.23;;
42198;SDS011;27868;45.184;5.786;2022-07-05T00:36:30;4.18;;;1.45;;
42198;SDS011;27868;45.184;5.786;2022-07-05T00:39:14;3.42;;;1.52;;
42198;SDS011;27868;45.184;5.786;2022-07-05T00:42:00;3.53;;;1.33;;
42198;SDS011;27868;45.184;5.786;2022-07-05T00:44:45;4.13;;;1.35;;
42198;SDS011;27868;45.184;5.786;2022-07-05T00:47:29;2.50;;;1.30;;
42198;SDS011;27868;45.184;5.786;2022-07-05T00:50:14;3.95;;;1.42;;
42198;SDS011;27868;45.184;5.786;2022-07-05T00:52:58;3.28;;;1.83;;
42198;SDS011;27868;45.184;5.786;2022-07-05T00:55:44;3.08;;;1.50;;
42198;SDS011;27868;45.184;5.786;2022-07-05T00:58:29;2.22;;;1.23;;
42198;SDS011;27868;45.184;5.786;2022-07-05T01:01:16;3.17;;;1.50;;
42198;SDS011;27868;45.184;5.786;2022-07-05T01:04:00;3.20;;;1.40;;
42198;SDS011;27868;45.184;5.786;2022-07-05T01:06:46;1.90;;;1.50;;
42198;SDS011;27868;45.184;5.786;2022-07-05T01:09:32;2.95;;;1.27;;
42198;SDS011;27868;45.184;5.786;2022-07-05T01:12:19;2.10;;;1.45;;
42198;SDS011;27868;45.184;5.786;2022-07-05T01:15:03;5.05;;;1.25;;
42198;SDS011;27868;45.184;5.786;2022-07-05T01:17:49;2.75;;;1.33;;
42198;SDS011;27868;45.184;5.786;2022-07-05T01:20:34;2.25;;;1.30;;
42198;SDS011;27868;45.184;5.786;2022-07-05T01:23:20;4.57;;;1.50;;
42198;SDS011;27868;45.184;5.786;2022-07-05T01:26:05;1.92;;;1.15;;
42198;SDS011;27868;45.184;5.786;2022-07-05T01:28:51;4.22;;;1.17;;
42198;SDS011;27868;45.184;5.786;2022-07-05T01:31:36;2.50;;;1.10;;
42198;SDS011;27868;45.184;5.786;2022-07-05T01:34:22;3.50;;;1.25;;
42198;SDS011;27868;45.184;5.786;2022-07-05T01:37:07;2.75;;;1.20;;
42198;SDS011;27868;45.184;5.786;2022-07-05T01:39:52;4.28;;;1.30;;
42198;SDS011;27868;45.184;5.786;2022-07-05T01:42:38;2.90;;;1.30;;
42198;SDS011;27868;45.184;5.786;2022-07-05T01:45:22;3.88;;;1.20;;
42198;SDS011;27868;45.184;5.786;2022-07-05T01:48:26;2.28;;;1.20;;
42198;SDS011;27868;45.184;5.786;2022-07-05T01:51:16;4.30;;;1.27;;
42198;SDS011;27868;45.184;5.786;2022-07-05T01:54:05;3.05;;;1.30;;
42198;SDS011;27868;45.184;5.786;2022-07-05T01:56:49;1.90;;;1.30;;
42198;SDS011;27868;45.184;5.786;2022-07-05T01:59:35;2.35;;;1.23;;
42198;SDS011;27868;45.184;5.786;2022-07-05T02:02:21;2.22;;;1.30;;
42198;SDS011;27868;45.184;5.786;2022-07-05T02:05:05;6.70;;;1.75;;
42198;SDS011;27868;45.184;5.786;2022-07-05T02:07:50;4.72;;;1.40;;
42198;SDS011;27868;45.184;5.786;2022-07-05T02:10:36;3.00;;;1.40;;
42198;SDS011;27868;45.184;5.786;2022-07-05T02:13:21;2.13;;;1.30;;
42198;SDS011;27868;45.184;5.786;2022-07-05T02:16:06;2.72;;;1.30;;
42198;SDS011;27868;45.184;5.786;2022-07-05T02:18:51;2.05;;;1.20;;
42198;SDS011;27868;45.184;5.786;2022-07-05T02:21:36;4.50;;;1.30;;
42198;SDS011;27868;45.184;5.786;2022-07-05T02:24:20;2.33;;;1.48;;
42198;SDS011;27868;45.184;5.786;2022-07-05T02:27:05;3.75;;;1.20;;
42198;SDS011;27868;45.184;5.786;2022-07-05T02:29:50;5.38;;;1.60;;
42198;SDS011;27868;45.184;5.786;2022-07-05T02:32:34;4.25;;;1.13;;
42198;SDS011;27868;45.184;5.786;2022-07-05T02:35:19;1.73;;;1.10;;
42198;SDS011;27868;45.184;5.786;2022-07-05T02:38:04;2.30;;;1.10;;
42198;SDS011;27868;45.184;5.786;2022-07-05T02:40:48;3.20;;;1.30;;
42198;SDS011;27868;45.184;5.786;2022-07-05T02:43:33;2.10;;;1.15;;
42198;SDS011;27868;45.184;5.786;2022-07-05T02:46:18;6.45;;;1.50;;
42198;SDS011;27868;45.184;5.786;2022-07-05T02:49:03;2.35;;;1.17;;
42198;SDS011;27868;45.184;5.786;2022-07-05T02:51:48;2.92;;;1.20;;
42198;SDS011;27868;45.184;5.786;2022-07-05T02:54:32;2.88;;;1.30;;
42198;SDS011;27868;45.184;5.786;2022-07-05T02:57:20;4.78;;;1.45;;
42198;SDS011;27868;45.184;5.786;2022-07-05T03:00:05;2.78;;;1.40;;
42198;SDS011;27868;45.184;5.786;2022-07-05T03:02:50;1.10;;;0.98;;
42198;SDS011;27868;45.184;5.786;2022-07-05T03:05:35;1.80;;;1.10;;
42198;SDS011;27868;45.184;5.786;2022-07-05T03:08:20;2.05;;;1.20;;
42198;SDS011;27868;45.184;5.786;2022-07-05T03:11:04;3.67;;;1.40;;
42198;SDS011;27868;45.184;5.786;2022-07-05T03:13:49;2.08;;;1.25;;
42198;SDS011;27868;45.184;5.786;2022-07-05T03:16:33;3.70;;;1.20;;
42198;SDS011;27868;45.184;5.786;2022-07-05T03:19:18;2.67;;;1.35;;
42198;SDS011;27868;45.184;5.786;2022-07-05T03:22:02;4.90;;;1.20;;
42198;SDS011;27868;45.184;5.786;2022-07-05T03:24:47;5.57;;;1.45;;
42198;SDS011;27868;45.184;5.786;2022-07-05T03:27:32;4.35;;;1.48;;
42198;SDS011;27868;45.184;5.786;2022-07-05T03:30:16;6.07;;;1.45;;
42198;SDS011;27868;45.184;5.786;2022-07-05T03:33:01;3.92;;;1.35;;
42198;SDS011;27868;45.184;5.786;2022-07-05T03:35:46;3.75;;;1.50;;
42198;SDS011;27868;45.184;5.786;2022-07-05T03:38:31;2.10;;;1.10;;
42198;SDS011;27868;45.184;5.786;2022-07-05T03:41:17;3.70;;;1.30;;
42198;SDS011;27868;45.184;5.786;2022-07-05T03:44:02;3.25;;;1.05;;
42198;SDS011;27868;45.184;5.786;2022-07-05T03:46:47;4.03;;;1.00;;
42198;SDS011;27868;45.184;5.786;2022-07-05T03:49:32;2.85;;;1.45;;
42198;SDS011;27868;45.184;5.786;2022-07-05T03:52:17;2.83;;;1.00;;
42198;SDS011;27868;45.184;5.786;2022-07-05T03:55:01;2.83;;;1.30;;
42198;SDS011;27868;45.184;5.786;2022-07-05T03:57:47;3.70;;;1.00;;
42198;SDS011;27868;45.184;5.786;2022-07-05T04:00:32;2.92;;;1.30;;
42198;SDS011;27868;45.184;5.786;2022-07-05T04:03:18;3.58;;;1.20;;
42198;SDS011;27868;45.184;5.786;2022-07-05T04:06:02;2.33;;;1.00;;
42198;SDS011;27868;45.184;5.786;2022-07-05T04:08:47;2.17;;;1.30;;
42198;SDS011;27868;45.184;5.786;2022-07-05T04:11:32;4.25;;;1.20;;
42198;SDS011;27868;45.184;5.786;2022-07-05T04:14:17;3.70;;;1.40;;
42198;SDS011;27868;45.184;5.786;2022-07-05T04:17:01;2.20;;;1.38;;
42198;SDS011;27868;45.184;5.786;2022-07-05T04:19:46;2.05;;;1.10;;
42198;SDS011;27868;45.184;5.786;2022-07-05T04:22:31;3.55;;;1.10;;
42198;SDS011;27868;45.184;5.786;2022-07-05T04:25:16;2.00;;;1.00;;
42198;SDS011;27868;45.184;5.786;2022-07-05T04:28:02;2.67;;;1.30;;
42198;SDS011;27868;45.184;5.786;2022-07-05T04:30:47;7.65;;;1.98;;
42198;SDS011;27868;45.184;5.786;2022-07-05T04:33:31;2.10;;;1.15;;
42198;SDS011;27868;45.184;5.786;2022-07-05T04:36:16;2.10;;;1.10;;
42198;SDS011;27868;45.184;5.786;2022-07-05T04:39:01;10.40;;;1.65;;
42198;SDS011;27868;45.184;5.786;2022-07-05T04:41:47;1.55;;;1.00;;
42198;SDS011;27868;45.184;5.786;2022-07-05T04:44:31;2.38;;;1.20;;
42198;SDS011;27868;45.184;5.786;2022-07-05T04:47:17;4.97;;;1.40;;
42198;SDS011;27868;45.184;5.786;2022-07-05T04:50:01;2.17;;;1.10;;
42198;SDS011;27868;45.184;5.786;2022-07-05T04:52:47;2.50;;;1.15;;
42198;SDS011;27868;45.184;5.786;2022-07-05T04:55:31;2.45;;;1.10;;
42198;SDS011;27868;45.184;5.786;2022-07-05T04:58:16;2.30;;;1.20;;
42198;SDS011;27868;45.184;5.786;2022-07-05T05:01:01;4.50;;;1.20;;
42198;SDS011;27868;45.184;5.786;2022-07-05T05:03:46;2.75;;;1.50;;
42198;SDS011;27868;45.184;5.786;2022-07-05T05:06:30;1.48;;;1.13;;
42198;SDS011;27868;45.184;5.786;2022-07-05T05:09:14;2.35;;;1.10;;
42198;SDS011;27868;45.184;5.786;2022-07-05T05:11:59;4.25;;;1.20;;
42198;SDS011;27868;45.184;5.786;2022-07-05T05:14:43;2.50;;;1.02;;
42198;SDS011;27868;45.184;5.786;2022-07-05T05:17:38;2.70;;;1.02;;
42198;SDS011;27868;45.184;5.786;2022-07-05T05:20:24;2.67;;;1.30;;
42198;SDS011;27868;45.184;5.786;2022-07-05T05:23:09;2.85;;;1.17;;
42198;SDS011;27868;45.184;5.786;2022-07-05T05:25:53;5.13;;;1.30;;
42198;SDS011;27868;45.184;5.786;2022-07-05T05:28:38;3.42;;;1.38;;
42198;SDS011;27868;45.184;5.786;2022-07-05T05:31:24;2.92;;;1.10;;
42198;SDS011;27868;45.184;5.786;2022-07-05T05:34:10;2.78;;;1.27;;
42198;SDS011;27868;45.184;5.786;2022-07-05T05:36:55;3.05;;;1.38;;
42198;SDS011;27868;45.184;5.786;2022-07-05T05:39:40;3.55;;;1.20;;
42198;SDS011;27868;45.184;5.786;2022-07-05T05:42:25;3.72;;;1.20;;
42198;SDS011;27868;45.184;5.786;2022-07-05T05:45:09;6.43;;;1.20;;
42198;SDS011;27868;45.184;5.786;2022-07-05T05:47:56;5.38;;;1.20;;
42198;SDS011;27868;45.184;5.786;2022-07-05T05:50:42;3.10;;;1.20;;
42198;SDS011;27868;45.184;5.786;2022-07-05T05:53:26;4.35;;;1.33;;
42198;SDS011;27868;45.184;5.786;2022-07-05T05:56:11;2.22;;;1.30;;
42198;SDS011;27868;45.184;5.786;2022-07-05T05:58:56;2.30;;;1.20;;
42198;SDS011;27868;45.184;5.786;2022-07-05T06:01:41;3.17;;;1.20;;
42198;SDS011;27868;45.184;5.786;2022-07-05T06:04:26;6.07;;;1.23;;
42198;SDS011;27868;45.184;5.786;2022-07-05T06:07:10;1.73;;;0.98;;
42198;SDS011;27868;45.184;5.786;2022-07-05T06:09:55;4.30;;;1.25;;
42198;SDS011;27868;45.184;5.786;2022-07-05T06:12:39;2.88;;;1.20;;
42198;SDS011;27868;45.184;5.786;2022-07-05T06:15:24;2.95;;;1.40;;
42198;SDS011;27868;45.184;5.786;2022-07-05T06:18:10;3.95;;;1.00;;
42198;SDS011;27868;45.184;5.786;2022-07-05T06:20:55;2.85;;;1.13;;
42198;SDS011;27868;45.184;5.786;2022-07-05T06:23:40;5.38;;;1.00;;
42198;SDS011;27868;45.184;5.786;2022-07-05T06:26:24;3.40;;;1.20;;
42198;SDS011;27868;45.184;5.786;2022-07-05T06:29:09;2.45;;;1.30;;
42198;SDS011;27868;45.184;5.786;2022-07-05T06:31:54;2.45;;;1.10;;
42198;SDS011;27868;45.184;5.786;2022-07-05T06:34:39;1.90;;;1.10;;
42198;SDS011;27868;45.184;5.786;2022-07-05T06:37:24;3.08;;;1.10;;
42198;SDS011;27868;45.184;5.786;2022-07-05T06:40:09;1.38;;;0.90;;
42198;SDS011;27868;45.184;5.786;2022-07-05T06:42:56;3.30;;;1.20;;
42198;SDS011;27868;45.184;5.786;2022-07-05T06:45:42;3.40;;;1.17;;
42198;SDS011;27868;45.184;5.786;2022-07-05T06:48:26;1.88;;;1.10;;
42198;SDS011;27868;45.184;5.786;2022-07-05T06:51:11;3.00;;;1.10;;
42198;SDS011;27868;45.184;5.786;2022-07-05T06:53:55;1.95;;;1.13;;
42198;SDS011;27868;45.184;5.786;2022-07-05T06:56:40;3.33;;;1.15;;
42198;SDS011;27868;45.184;5.786;2022-07-05T06:59:25;4.32;;;1.27;;
42198;SDS011;27868;45.184;5.786;2022-07-05T07:02:10;3.35;;;1.40;;
42198;SDS011;27868;45.184;5.786;2022-07-05T07:04:54;2.03;;;1.20;;
42198;SDS011;27868;45.184;5.786;2022-07-05T07:07:38;3.65;;;1.30;;
42198;SDS011;27868;45.184;5.786;2022-07-05T07:10:42;9.68;;;1.40;;
42198;SDS011;27868;45.184;5.786;2022-07-05T07:13:26;3.13;;;1.27;;
42198;SDS011;27868;45.184;5.786;2022-07-05T07:16:11;5.75;;;1.20;;
42198;SDS011;27868;45.184;5.786;2022-07-05T07:18:56;2.85;;;1.20;;
42198;SDS011;27868;45.184;5.786;2022-07-05T07:21:41;3.78;;;1.15;;
42198;SDS011;27868;45.184;5.786;2022-07-05T07:24:26;3.67;;;1.33;;
42198;SDS011;27868;45.184;5.786;2022-07-05T07:27:11;4.68;;;1.20;;
42198;SDS011;27868;45.184;5.786;2022-07-05T07:29:55;4.35;;;1.30;;
42198;SDS011;27868;45.184;5.786;2022-07-05T07:32:39;6.07;;;1.30;;
42198;SDS011;27868;45.184;5.786;2022-07-05T07:35:24;2.75;;;1.20;;
42198;SDS011;27868;45.184;5.786;2022-07-05T07:38:09;3.03;;;1.35;;
42198;SDS011;27868;45.184;5.786;2022-07-05T07:40:54;3.42;;;1.10;;
42198;SDS011;27868;45.184;5.786;2022-07-05T07:43:39;2.92;;;1.20;;
42198;SDS011;27868;45.184;5.786;2022-07-05T07:46:24;3.25;;;1.20;;
42198;SDS011;27868;45.184;5.786;2022-07-05T07:49:08;4.95;;;1.10;;
42198;SDS011;27868;45.184;5.786;2022-07-05T07:51:55;3.60;;;0.95;;
42198;SDS011;27868;45.184;5.786;2022-07-05T07:54:39;2.55;;;1.10;;
42198;SDS011;27868;45.184;5.786;2022-07-05T07:57:24;2.15;;;1.00;;
42198;SDS011;27868;45.184;5.786;2022-07-05T08:00:08;3.38;;;1.30;;
42198;SDS011;27868;45.184;5.786;2022-07-05T08:02:53;1.95;;;1.30;;
42198;SDS011;27868;45.184;5.786;2022-07-05T08:05:38;6.90;;;1.10;;
42198;SDS011;27868;45.184;5.786;2022-07-05T08:08:22;6.20;;;1.38;;
42198;SDS011;27868;45.184;5.786;2022-07-05T08:11:08;1.98;;;1.15;;
42198;SDS011;27868;45.184;5.786;2022-07-05T08:13:53;2.38;;;1.00;;
42198;SDS011;27868;45.184;5.786;2022-07-05T08:16:38;5.22;;;1.50;;
42198;SDS011;27868;45.184;5.786;2022-07-05T08:19:23;2.95;;;1.20;;
42198;SDS011;27868;45.184;5.786;2022-07-05T08:22:26;3.33;;;1.20;;
42198;SDS011;27868;45.184;5.786;2022-07-05T08:25:11;3.15;;;1.33;;
42198;SDS011;27868;45.184;5.786;2022-07-05T08:27:58;2.80;;;1.30;;
42198;SDS011;27868;45.184;5.786;2022-07-05T08:30:42;4.07;;;1.45;;
42198;SDS011;27868;45.184;5.786;2022-07-05T08:33:26;4.20;;;1.48;;
42198;SDS011;27868;45.184;5.786;2022-07-05T08:36:11;3.97;;;1.17;;
42198;SDS011;27868;45.184;5.786;2022-07-05T08:38:55;3.78;;;1.40;;
42198;SDS011;27868;45.184;5.786;2022-07-05T08:41:42;3.60;;;1.45;;
42198;SDS011;27868;45.184;5.786;2022-07-05T08:44:32;3.00;;;1.42;;
42198;SDS011;27868;45.184;5.786;2022-07-05T08:47:19;2.70;;;1.17;;
42198;SDS011;27868;45.184;5.786;2022-07-05T08:50:05;3.65;;;1.50;;
42198;SDS011;27868;45.184;5.786;2022-07-05T08:52:52;5.22;;;1.33;;
42198;SDS011;27868;45.184;5.786;2022-07-05T08:55:37;5.72;;;1.48;;
42198;SDS011;27868;45.184;5.786;2022-07-05T08:58:23;4.25;;;1.42;;
42198;SDS011;27868;45.184;5.786;2022-07-05T09:01:08;3.83;;;1.50;;
42198;SDS011;27868;45.184;5.786;2022-07-05T09:03:54;3.03;;;1.40;;
42198;SDS011;27868;45.184;5.786;2022-07-05T09:06:43;4.05;;;1.83;;
42198;SDS011;27868;45.184;5.786;2022-07-05T09:09:30;4.85;;;1.77;;
42198;SDS011;27868;45.184;5.786;2022-07-05T09:12:17;3.90;;;1.50;;
42198;SDS011;27868;45.184;5.786;2022-07-05T09:15:02;4.72;;;1.60;;
42198;SDS011;27868;45.184;5.786;2022-07-05T09:17:50;4.25;;;2.03;;
42198;SDS011;27868;45.184;5.786;2022-07-05T09:20:34;2.95;;;1.45;;
42198;SDS011;27868;45.184;5.786;2022-07-05T09:23:20;3.35;;;1.45;;
42198;SDS011;27868;45.184;5.786;2022-07-05T09:26:05;11.30;;;2.50;;
42198;SDS011;27868;45.184;5.786;2022-07-05T09:28:54;2.47;;;1.58;;
42198;SDS011;27868;45.184;5.786;2022-07-05T09:31:41;3.90;;;1.60;;
42198;SDS011;27868;45.184;5.786;2022-07-05T09:34:28;4.72;;;1.80;;
42198;SDS011;27868;45.184;5.786;2022-07-05T09:37:14;4.32;;;1.70;;
42198;SDS011;27868;45.184;5.786;2022-07-05T09:39:59;3.60;;;1.55;;
42198;SDS011;27868;45.184;5.786;2022-07-05T09:42:43;2.53;;;1.40;;
42198;SDS011;27868;45.184;5.786;2022-07-05T09:45:28;4.65;;;1.63;;
42198;SDS011;27868;45.184;5.786;2022-07-05T09:48:12;2.33;;;1.63;;
42198;SDS011;27868;45.184;5.786;2022-07-05T09:51:03;6.05;;;1.73;;
42198;SDS011;27868;45.184;5.786;2022-07-05T09:53:51;5.50;;;2.00;;
42198;SDS011;27868;45.184;5.786;2022-07-05T09:56:47;3.05;;;1.70;;
42198;SDS011;27868;45.184;5.786;2022-07-05T09:59:32;4.50;;;1.70;;
42198;SDS011;27868;45.184;5.786;2022-07-05T10:02:24;6.18;;;2.58;;
42198;SDS011;27868;45.184;5.786;2022-07-05T10:05:28;3.97;;;1.73;;
42198;SDS011;27868;45.184;5.786;2022-07-05T10:08:14;6.45;;;1.90;;
42198;SDS011;27868;45.184;5.786;2022-07-05T10:11:01;3.22;;;2.00;;
42198;SDS011;27868;45.184;5.786;2022-07-05T10:13:47;3.63;;;1.77;;
42198;SDS011;27868;45.184;5.786;2022-07-05T10:16:33;4.68;;;1.80;;
42198;SDS011;27868;45.184;5.786;2022-07-05T10:19:19;3.17;;;1.73;;
42198;SDS011;27868;45.184;5.786;2022-07-05T10:22:05;6.70;;;2.15;;
42198;SDS011;27868;45.184;5.786;2022-07-05T10:24:50;4.38;;;1.90;;
42198;SDS011;27868;45.184;5.786;2022-07-05T10:27:37;7.65;;;2.00;;
42198;SDS011;27868;45.184;5.786;2022-07-05T10:30:22;8.18;;;2.10;;
42198;SDS011;27868;45.184;5.786;2022-07-05T10:33:07;5.93;;;2.05;;
42198;SDS011;27868;45.184;5.786;2022-07-05T10:35:53;2.85;;;1.80;;
42198;SDS011;27868;45.184;5.786;2022-07-05T10:38:39;9.35;;;1.90;;
42198;SDS011;27868;45.184;5.786;2022-07-05T10:41:26;4.07;;;1.80;;
42198;SDS011;27868;45.184;5.786;2022-07-05T10:44:24;4.93;;;2.20;;
42198;SDS011;27868;45.184;5.786;2022-07-05T10:47:18;2.35;;;1.70;;
42198;SDS011;27868;45.184;5.786;2022-07-05T10:50:05;4.97;;;1.70;;
42198;SDS011;27868;45.184;5.786;2022-07-05T10:53:01;4.13;;;2.08;;
42198;SDS011;27868;45.184;5.786;2022-07-05T10:55:57;5.13;;;2.03;;
42198;SDS011;27868;45.184;5.786;2022-07-05T10:58:48;6.20;;;1.80;;
42198;SDS011;27868;45.184;5.786;2022-07-05T11:01:49;4.50;;;1.80;;
42198;SDS011;27868;45.184;5.786;2022-07-05T11:04:33;3.55;;;1.70;;
42198;SDS011;27868;45.184;5.786;2022-07-05T11:07:40;7.43;;;1.88;;
42198;SDS011;27868;45.184;5.786;2022-07-05T11:13:53;3.13;;;1.38;;
42198;SDS011;27868;45.184;5.786;2022-07-05T11:16:38;3.05;;;1.40;;
42198;SDS011;27868;45.184;5.786;2022-07-05T11:19:22;4.07;;;1.33;;
42198;SDS011;27868;45.184;5.786;2022-07-05T11:22:07;1.92;;;1.35;;
42198;SDS011;27868;45.184;5.786;2022-07-05T11:24:53;3.65;;;1.30;;
42198;SDS011;27868;45.184;5.786;2022-07-05T11:31:03;2.47;;;1.50;;
42198;SDS011;27868;45.184;5.786;2022-07-05T11:33:48;3.47;;;1.55;;
42198;SDS011;27868;45.184;5.786;2022-07-05T11:36:34;3.08;;;1.50;;
42198;SDS011;27868;45.184;5.786;2022-07-05T11:39:19;5.53;;;1.50;;
42198;SDS011;27868;45.184;5.786;2022-07-05T11:42:04;4.38;;;1.58;;
42198;SDS011;27868;45.184;5.786;2022-07-05T11:44:50;3.65;;;1.50;;
42198;SDS011;27868;45.184;5.786;2022-07-05T11:47:35;3.15;;;1.20;;
42198;SDS011;27868;45.184;5.786;2022-07-05T11:50:24;2.42;;;1.33;;
42198;SDS011;27868;45.184;5.786;2022-07-05T11:53:14;7.53;;;1.52;;
42198;SDS011;27868;45.184;5.786;2022-07-05T11:56:10;3.55;;;1.35;;
42198;SDS011;27868;45.184;5.786;2022-07-05T11:58:55;3.58;;;1.40;;
42198;SDS011;27868;45.184;5.786;2022-07-05T12:01:43;3.90;;;1.50;;
42198;SDS011;27868;45.184;5.786;2022-07-05T12:04:29;3.88;;;1.52;;
42198;SDS011;27868;45.184;5.786;2022-07-05T12:07:27;3.15;;;1.30;;
42198;SDS011;27868;45.184;5.786;2022-07-05T12:10:16;2.20;;;1.33;;
42198;SDS011;27868;45.184;5.786;2022-07-05T12:13:20;2.85;;;1.35;;
42198;SDS011;27868;45.184;5.786;2022-07-05T12:16:04;4.05;;;1.63;;
42198;SDS011;27868;45.184;5.786;2022-07-05T12:18:53;3.33;;;1.23;;
42198;SDS011;27868;45.184;5.786;2022-07-05T12:21:39;3.35;;;1.40;;
42198;SDS011;27868;45.184;5.786;2022-07-05T12:24:24;5.05;;;1.35;;
42198;SDS011;27868;45.184;5.786;2022-07-05T12:27:09;4.25;;;1.60;;
42198;SDS011;27868;45.184;5.786;2022-07-05T12:29:55;3.95;;;1.40;;
42198;SDS011;27868;45.184;5.786;2022-07-05T12:35:45;3.13;;;1.38;;
42198;SDS011;27868;45.184;5.786;2022-07-05T12:38:30;3.28;;;1.30;;
42198;SDS011;27868;45.184;5.786;2022-07-05T12:41:22;3.72;;;1.30;;
42198;SDS011;27868;45.184;5.786;2022-07-05T12:44:06;4.38;;;1.10;;
42198;SDS011;27868;45.184;5.786;2022-07-05T12:46:51;2.58;;;1.40;;
42198;SDS011;27868;45.184;5.786;2022-07-05T12:49:52;2.92;;;1.40;;
42198;SDS011;27868;45.184;5.786;2022-07-05T12:55:42;4.25;;;1.30;;
42198;SDS011;27868;45.184;5.786;2022-07-05T12:58:49;5.78;;;1.42;;
42198;SDS011;27868;45.184;5.786;2022-07-05T13:01:42;1.75;;;1.20;;
42198;SDS011;27868;45.184;5.786;2022-07-05T13:04:28;2.50;;;1.23;;
42198;SDS011;27868;45.184;5.786;2022-07-05T13:07:14;2.65;;;1.20;;
42198;SDS011;27868;45.184;5.786;2022-07-05T13:10:17;1.75;;;1.05;;
42198;SDS011;27868;45.184;5.786;2022-07-05T13:13:02;3.72;;;1.13;;
42198;SDS011;27868;45.184;5.786;2022-07-05T13:15:46;2.22;;;0.80;;
42198;SDS011;27868;45.184;5.786;2022-07-05T13:18:30;3.50;;;1.33;;
42198;SDS011;27868;45.184;5.786;2022-07-05T13:21:15;5.03;;;1.17;;
42198;SDS011;27868;45.184;5.786;2022-07-05T13:24:00;3.70;;;1.10;;
42198;SDS011;27868;45.184;5.786;2022-07-05T13:26:44;2.55;;;1.20;;
42198;SDS011;27868;45.184;5.786;2022-07-05T13:29:30;2.25;;;1.00;;
42198;SDS011;27868;45.184;5.786;2022-07-05T13:32:15;3.28;;;1.20;;
42198;SDS011;27868;45.184;5.786;2022-07-05T13:35:00;5.97;;;1.10;;
42198;SDS011;27868;45.184;5.786;2022-07-05T13:37:45;3.85;;;1.27;;
42198;SDS011;27868;45.184;5.786;2022-07-05T13:40:29;4.80;;;1.50;;
42198;SDS011;27868;45.184;5.786;2022-07-05T13:43:14;5.15;;;1.10;;
42198;SDS011;27868;45.184;5.786;2022-07-05T13:45:58;4.13;;;1.00;;
42198;SDS011;27868;45.184;5.786;2022-07-05T13:48:43;2.40;;;1.00;;
42198;SDS011;27868;45.184;5.786;2022-07-05T13:51:28;3.35;;;1.05;;
42198;SDS011;27868;45.184;5.786;2022-07-05T13:54:12;5.05;;;1.35;;
42198;SDS011;27868;45.184;5.786;2022-07-05T13:56:58;1.88;;;1.20;;
42198;SDS011;27868;45.184;5.786;2022-07-05T13:59:42;4.60;;;1.35;;
42198;SDS011;27868;45.184;5.786;2022-07-05T14:02:27;3.17;;;1.10;;
42198;SDS011;27868;45.184;5.786;2022-07-05T14:05:11;5.88;;;1.08;;
42198;SDS011;27868;45.184;5.786;2022-07-05T14:07:56;3.72;;;1.10;;
42198;SDS011;27868;45.184;5.786;2022-07-05T14:10:41;1.75;;;0.80;;
42198;SDS011;27868;45.184;5.786;2022-07-05T14:13:26;2.08;;;1.08;;
42198;SDS011;27868;45.184;5.786;2022-07-05T14:16:12;2.92;;;1.02;;
42198;SDS011;27868;45.184;5.786;2022-07-05T14:18:57;6.25;;;1.05;;
42198;SDS011;27868;45.184;5.786;2022-07-05T14:21:41;7.75;;;1.02;;
42198;SDS011;27868;45.184;5.786;2022-07-05T14:24:30;3.28;;;1.35;;
42198;SDS011;27868;45.184;5.786;2022-07-05T14:27:15;4.70;;;1.00;;
42198;SDS011;27868;45.184;5.786;2022-07-05T14:29:59;3.38;;;0.98;;
42198;SDS011;27868;45.184;5.786;2022-07-05T14:32:44;4.95;;;1.35;;
42198;SDS011;27868;45.184;5.786;2022-07-05T14:35:28;6.05;;;0.88;;
42198;SDS011;27868;45.184;5.786;2022-07-05T14:38:14;3.05;;;1.13;;
42198;SDS011;27868;45.184;5.786;2022-07-05T14:40:58;3.80;;;0.77;;
42198;SDS011;27868;45.184;5.786;2022-07-05T14:43:43;3.83;;;0.90;;
42198;SDS011;27868;45.184;5.786;2022-07-05T14:46:28;4.82;;;0.75;;
42198;SDS011;27868;45.184;5.786;2022-07-05T14:49:12;3.15;;;1.05;;
42198;SDS011;27868;45.184;5.786;2022-07-05T14:51:57;4.53;;;0.90;;
42198;SDS011;27868;45.184;5.786;2022-07-05T14:54:42;2.08;;;0.70;;
42198;SDS011;27868;45.184;5.786;2022-07-05T14:57:27;1.38;;;0.70;;
42198;SDS011;27868;45.184;5.786;2022-07-05T15:00:13;1.77;;;0.90;;
42198;SDS011;27868;45.184;5.786;2022-07-05T15:02:59;2.97;;;0.88;;
42198;SDS011;27868;45.184;5.786;2022-07-05T15:05:43;3.72;;;1.00;;
42198;SDS011;27868;45.184;5.786;2022-07-05T15:08:28;2.60;;;0.70;;
42198;SDS011;27868;45.184;5.786;2022-07-05T15:11:13;1.20;;;0.80;;
42198;SDS011;27868;45.184;5.786;2022-07-05T15:13:58;3.95;;;0.80;;
42198;SDS011;27868;45.184;5.786;2022-07-05T15:16:46;2.87;;;1.00;;
42198;SDS011;27868;45.184;5.786;2022-07-05T15:19:30;3.25;;;0.98;;
42198;SDS011;27868;45.184;5.786;2022-07-05T15:22:15;3.25;;;0.90;;
42198;SDS011;27868;45.184;5.786;2022-07-05T15:25:00;1.65;;;0.80;;
42198;SDS011;27868;45.184;5.786;2022-07-05T15:27:45;3.53;;;0.77;;
42198;SDS011;27868;45.184;5.786;2022-07-05T15:30:29;6.13;;;1.00;;
42198;SDS011;27868;45.184;5.786;2022-07-05T15:33:14;5.50;;;0.63;;
42198;SDS011;27868;45.184;5.786;2022-07-05T15:35:58;2.97;;;0.80;;
42198;SDS011;27868;45.184;5.786;2022-07-05T15:38:43;3.00;;;0.70;;
42198;SDS011;27868;45.184;5.786;2022-07-05T15:41:27;4.88;;;0.73;;
42198;SDS011;27868;45.184;5.786;2022-07-05T15:44:13;3.35;;;0.70;;
42198;SDS011;27868;45.184;5.786;2022-07-05T15:46:58;2.30;;;0.60;;
42198;SDS011;27868;45.184;5.786;2022-07-05T15:49:51;2.70;;;0.80;;
42198;SDS011;27868;45.184;5.786;2022-07-05T15:52:36;1.60;;;0.60;;
42198;SDS011;27868;45.184;5.786;2022-07-05T15:55:21;1.60;;;0.50;;
42198;SDS011;27868;45.184;5.786;2022-07-05T15:58:07;1.08;;;0.65;;
42198;SDS011;27868;45.184;5.786;2022-07-05T16:00:51;2.17;;;0.90;;
42198;SDS011;27868;45.184;5.786;2022-07-05T16:03:36;5.25;;;0.80;;
42198;SDS011;27868;45.184;5.786;2022-07-05T16:06:21;8.93;;;1.10;;
42198;SDS011;27868;45.184;5.786;2022-07-05T16:09:06;5.38;;;0.73;;
42198;SDS011;27868;45.184;5.786;2022-07-05T16:11:51;1.52;;;0.60;;
42198;SDS011;27868;45.184;5.786;2022-07-05T16:14:36;1.73;;;0.57;;
42198;SDS011;27868;45.184;5.786;2022-07-05T16:17:20;4.00;;;0.70;;
42198;SDS011;27868;45.184;5.786;2022-07-05T16:20:06;5.43;;;0.70;;
42198;SDS011;27868;45.184;5.786;2022-07-05T16:22:51;2.63;;;0.77;;
42198;SDS011;27868;45.184;5.786;2022-07-05T16:25:35;4.55;;;1.30;;
42198;SDS011;27868;45.184;5.786;2022-07-05T16:28:20;5.75;;;0.80;;
42198;SDS011;27868;45.184;5.786;2022-07-05T16:31:07;4.28;;;0.75;;
42198;SDS011;27868;45.184;5.786;2022-07-05T16:33:53;3.47;;;0.70;;
42198;SDS011;27868;45.184;5.786;2022-07-05T16:36:38;3.70;;;0.85;;
42198;SDS011;27868;45.184;5.786;2022-07-05T16:39:22;2.53;;;0.50;;
42198;SDS011;27868;45.184;5.786;2022-07-05T16:42:07;6.07;;;1.02;;
42198;SDS011;27868;45.184;5.786;2022-07-05T16:44:52;2.85;;;0.70;;
42198;SDS011;27868;45.184;5.786;2022-07-05T16:47:37;2.75;;;0.75;;
42198;SDS011;27868;45.184;5.786;2022-07-05T16:50:21;2.72;;;0.60;;
42198;SDS011;27868;45.184;5.786;2022-07-05T16:53:06;2.75;;;0.77;;